createdAt,value
2023-01-03T00:01:45.052Z,5.85
2023-01-03T00:03:49.764Z,3.78
2023-01-03T00:05:51.307Z,4.55
2023-01-03T00:07:52.847Z,5.15
2023-01-03T00:10:09.040Z,7.72
2023-01-03T00:12:30.734Z,11.85
2023-01-03T00:14:34.179Z,7.63
2023-01-03T00:16:35.830Z,7.95
2023-01-03T00:18:37.370Z,6.70
2023-01-03T00:20:41.797Z,12.57
2023-01-03T00:24:52.014Z,14.18
2023-01-03T00:26:56.360Z,10.95
2023-01-03T00:29:03.833Z,8.73
2023-01-03T00:31:12.035Z,11.88
2023-01-03T00:33:19.639Z,7.35
2023-01-03T00:35:27.269Z,10.20
2023-01-03T00:37:28.788Z,7.82
2023-01-03T00:39:30.283Z,8.35
2023-01-03T00:41:34.435Z,6.13
2023-01-03T00:43:42.809Z,10.00
2023-01-03T00:45:44.373Z,6.97
2023-01-03T00:47:51.615Z,7.10
2023-01-03T00:49:53.307Z,5.75
2023-01-03T00:51:57.467Z,5.95
2023-01-03T00:54:02.567Z,6.45
2023-01-03T00:56:06.915Z,6.75
2023-01-03T00:58:11.319Z,7.10
2023-01-03T01:02:17.243Z,6.72
2023-01-03T01:04:23.742Z,6.32
2023-01-03T01:06:34.011Z,9.30
2023-01-03T01:08:38.598Z,5.32
2023-01-03T01:11:01.762Z,7.82
2023-01-03T01:13:05.937Z,9.57
2023-01-03T01:15:10.217Z,8.80
2023-01-03T01:17:23.409Z,7.20
2023-01-03T01:19:48.573Z,11.20
2023-01-03T01:22:11.805Z,9.50
2023-01-03T01:24:33.623Z,10.25
2023-01-03T01:26:55.471Z,9.45
2023-01-03T01:29:15.350Z,7.47
2023-01-03T01:33:45.741Z,6.50
2023-01-03T01:36:03.563Z,6.15
2023-01-03T01:38:20.431Z,4.97
2023-01-03T01:40:38.968Z,5.38
2023-01-03T01:43:09.994Z,7.25
2023-01-03T01:45:21.304Z,5.93
2023-01-03T01:47:36.566Z,5.53
2023-01-03T01:49:57.783Z,4.82
2023-01-03T01:52:12.799Z,4.63
2023-01-03T01:54:23.997Z,5.53
2023-01-03T01:56:30.009Z,4.85
2023-01-03T01:58:38.613Z,4.32
2023-01-03T02:00:41.274Z,6.43
2023-01-03T02:02:48.358Z,4.15
2023-01-03T02:04:52.447Z,6.70
2023-01-03T02:06:54.587Z,6.85
2023-01-03T02:08:59.247Z,7.05
2023-01-03T02:11:06.828Z,5.82
2023-01-03T02:13:13.793Z,6.22
2023-01-03T02:15:28.476Z,9.38
2023-01-03T02:17:44.611Z,4.90
2023-01-03T02:20:24.728Z,7.35
2023-01-03T02:22:44.565Z,5.10
2023-01-03T02:24:54.909Z,7.93
2023-01-03T02:27:17.209Z,5.70
2023-01-03T02:29:52.488Z,7.20
2023-01-03T02:34:27.446Z,5.75
2023-01-03T02:36:29.008Z,5.95
2023-01-03T02:38:42.015Z,7.20
2023-01-03T02:40:50.832Z,6.95
2023-01-03T02:43:21.723Z,8.32
2023-01-03T02:45:32.502Z,6.93
2023-01-03T02:47:37.991Z,4.93
2023-01-03T02:49:43.036Z,6.03
2023-01-03T02:51:50.762Z,7.50
2023-01-03T02:53:52.320Z,4.70
2023-01-03T02:58:03.748Z,6.55
2023-01-03T03:00:12.599Z,7.70
2023-01-03T03:02:18.196Z,6.72
2023-01-03T03:04:19.919Z,5.68
2023-01-03T03:06:37.634Z,7.07
2023-01-03T03:08:44.663Z,7.47
2023-01-03T03:11:07.929Z,5.85
2023-01-03T03:13:25.652Z,6.90
2023-01-03T03:15:35.219Z,8.48
2023-01-03T03:17:38.417Z,7.53
2023-01-03T03:20:06.199Z,5.93
2023-01-03T03:22:32.850Z,6.78
2023-01-03T03:24:52.179Z,9.20
2023-01-03T03:26:54.370Z,6.53
2023-01-03T03:28:58.595Z,8.68
2023-01-03T03:31:12.558Z,7.20
2023-01-03T03:33:18.973Z,7.07
2023-01-03T03:35:26.491Z,5.05
2023-01-03T03:37:31.387Z,5.20
2023-01-03T03:39:54.981Z,7.70
2023-01-03T03:42:36.588Z,6.70
2023-01-03T03:45:01.586Z,4.60
2023-01-03T03:47:24.334Z,3.80
2023-01-03T03:49:38.891Z,5.18
2023-01-03T03:53:45.268Z,4.30
2023-01-03T03:55:56.769Z,5.35
2023-01-03T03:58:05.830Z,3.90
2023-01-03T04:00:27.484Z,5.13
2023-01-03T04:02:30.897Z,5.30
2023-01-03T04:04:38.688Z,3.97
2023-01-03T04:06:43.361Z,2.88
2023-01-03T04:08:50.853Z,4.03
2023-01-03T04:10:52.754Z,4.63
2023-01-03T04:12:54.299Z,2.95
2023-01-03T04:14:58.927Z,2.65
2023-01-03T04:17:03.318Z,3.03
2023-01-03T04:19:05.153Z,2.70
2023-01-03T04:21:22.847Z,3.42
2023-01-03T04:23:42.116Z,4.78
2023-01-03T04:26:05.297Z,5.43
2023-01-03T04:28:27.116Z,5.45
2023-01-03T04:30:42.795Z,5.53
2023-01-03T04:33:01.284Z,4.43
2023-01-03T04:35:14.706Z,5.90
2023-01-03T04:37:29.429Z,7.78
2023-01-03T04:39:42.268Z,3.95
2023-01-03T04:41:53.645Z,5.63
2023-01-03T04:44:15.033Z,5.82
2023-01-03T04:46:30.499Z,5.03
2023-01-03T04:48:43.476Z,6.45
2023-01-03T04:51:04.265Z,5.20
2023-01-03T04:53:22.391Z,7.38
2023-01-03T04:55:43.165Z,7.03
2023-01-03T04:57:46.953Z,5.97
2023-01-03T04:59:54.154Z,6.20
2023-01-03T05:01:58.705Z,4.32
2023-01-03T05:04:01.192Z,4.47
2023-01-03T05:06:07.077Z,6.38
2023-01-03T05:08:12.424Z,6.45
2023-01-03T05:10:13.929Z,3.80
2023-01-03T05:12:17.972Z,5.85
2023-01-03T05:14:22.051Z,6.28
2023-01-03T05:18:30.946Z,5.68
2023-01-03T05:20:56.879Z,4.72
2023-01-03T05:23:19.550Z,6.68
2023-01-03T05:25:42.268Z,6.97
2023-01-03T05:27:46.581Z,4.57
2023-01-03T05:29:55.250Z,5.93
2023-01-03T05:31:57.181Z,6.45
2023-01-03T05:34:01.513Z,5.15
2023-01-03T05:38:09.607Z,4.72
2023-01-03T05:40:11.218Z,6.88
2023-01-03T05:42:12.762Z,7.22
2023-01-03T05:44:14.354Z,12.38
2023-01-03T05:46:15.938Z,6.32
2023-01-03T05:48:17.835Z,4.30
2023-01-03T05:50:19.340Z,10.02
2023-01-03T05:52:21.145Z,6.70
2023-01-03T05:54:22.799Z,6.72
2023-01-03T05:56:24.472Z,5.82
2023-01-03T05:58:28.898Z,7.07
2023-01-03T06:00:33.288Z,4.88
2023-01-03T06:02:35.100Z,6.90
2023-01-03T06:04:42.620Z,9.43
2023-01-03T06:08:48.175Z,5.97
2023-01-03T06:10:49.732Z,9.68
2023-01-03T06:12:57.428Z,7.55
2023-01-03T06:17:27.860Z,6.53
2023-01-03T06:19:29.362Z,8.50
2023-01-03T06:21:30.808Z,12.55
2023-01-03T06:23:35.230Z,4.85
2023-01-03T06:25:39.860Z,11.52
2023-01-03T06:27:47.287Z,7.57
2023-01-03T06:29:51.617Z,8.32
2023-01-03T06:32:03.559Z,10.00
2023-01-03T06:34:08.598Z,18.55
2023-01-03T06:36:11.559Z,8.20
2023-01-03T06:38:13.087Z,9.65
2023-01-03T06:40:20.739Z,4.85
2023-01-03T06:42:42.480Z,14.65
2023-01-03T06:45:08.854Z,7.72
2023-01-03T06:47:31.419Z,11.80
2023-01-03T06:50:07.541Z,12.18
2023-01-03T06:52:31.854Z,8.30
2023-01-03T06:54:34.787Z,7.28
2023-01-03T06:56:42.250Z,20.38
2023-01-03T06:58:49.755Z,17.00
2023-01-03T07:00:52.807Z,16.13
2023-01-03T07:02:54.498Z,21.60
2023-01-03T07:04:59.347Z,13.48
2023-01-03T07:07:06.926Z,14.77
2023-01-03T07:09:14.267Z,15.50
2023-01-03T07:11:15.880Z,10.32
2023-01-03T07:13:35.965Z,17.75
2023-01-03T07:15:38.065Z,15.65
2023-01-03T07:17:49.987Z,20.88
2023-01-03T07:19:54.594Z,15.32
2023-01-03T07:21:56.289Z,17.55
2023-01-03T07:24:04.859Z,16.27
2023-01-03T07:26:12.369Z,17.10
2023-01-03T07:28:24.487Z,30.05
2023-01-03T07:30:29.394Z,14.48
2023-01-03T07:34:35.858Z,19.45
2023-01-03T07:36:37.449Z,22.00
2023-01-03T07:38:43.595Z,16.48
2023-01-03T07:40:47.806Z,12.15
2023-01-03T07:43:14.012Z,21.55
2023-01-03T07:45:18.560Z,20.77
2023-01-03T07:47:20.146Z,17.85
2023-01-03T07:49:21.840Z,21.23
2023-01-03T07:51:29.319Z,16.52
2023-01-03T07:53:37.360Z,19.52
2023-01-03T07:55:47.857Z,21.50
2023-01-03T07:57:49.892Z,25.05
2023-01-03T07:59:51.917Z,23.92
2023-01-03T08:01:53.727Z,22.63
2023-01-03T08:04:01.098Z,12.70
2023-01-03T08:06:04.864Z,13.32
2023-01-03T08:08:07.040Z,20.38
2023-01-03T08:10:36.365Z,12.85
2023-01-03T08:13:02.188Z,21.83
2023-01-03T08:15:04.112Z,21.98
2023-01-03T08:17:08.207Z,17.83
2023-01-03T08:19:12.804Z,24.48
2023-01-03T08:21:15.521Z,29.23
2023-01-03T08:23:17.419Z,18.88
2023-01-03T08:25:20.331Z,21.15
2023-01-03T08:27:24.917Z,13.77
2023-01-03T08:29:28.022Z,17.02
2023-01-03T08:31:31.935Z,16.23
2023-01-03T08:33:38.467Z,14.73
2023-01-03T08:35:49.194Z,18.70
2023-01-03T08:37:58.907Z,20.33
2023-01-03T08:40:06.881Z,17.63
2023-01-03T08:42:10.055Z,22.83
2023-01-03T08:44:11.918Z,21.17
2023-01-03T08:46:14.587Z,18.02
2023-01-03T08:48:23.027Z,16.17
2023-01-03T08:50:27.735Z,18.20
2023-01-03T08:52:35.248Z,9.80
2023-01-03T08:54:37.407Z,12.00
2023-01-03T08:56:39.685Z,13.80
2023-01-03T08:58:47.438Z,9.57
2023-01-03T09:00:55.060Z,15.27
2023-01-03T09:03:04.272Z,22.50
2023-01-03T09:05:06.551Z,22.15
2023-01-03T09:07:14.492Z,22.77
2023-01-03T09:09:22.238Z,15.98
2023-01-03T09:11:32.720Z,18.13
2023-01-03T09:13:34.718Z,22.75
2023-01-03T09:15:36.289Z,17.42
2023-01-03T09:17:45.380Z,19.55
2023-01-03T09:19:53.049Z,21.45
2023-01-03T09:21:55.115Z,21.85
2023-01-03T09:23:56.706Z,17.10
2023-01-03T09:25:58.804Z,18.60
2023-01-03T09:28:03.474Z,19.48
2023-01-03T09:30:11.132Z,23.67
2023-01-03T09:32:15.564Z,16.60
2023-01-03T09:36:28.638Z,22.52
2023-01-03T09:38:39.355Z,20.77
2023-01-03T09:40:41.944Z,15.95
2023-01-03T09:43:02.206Z,15.88
2023-01-03T09:45:08.066Z,30.98
2023-01-03T09:47:16.928Z,24.13
2023-01-03T09:49:24.506Z,33.42
2023-01-03T09:51:53.131Z,19.70
2023-01-03T09:54:19.478Z,24.25
2023-01-03T09:56:39.891Z,21.17
2023-01-03T09:59:05.673Z,17.95
2023-01-03T10:01:44.457Z,22.00
2023-01-03T10:03:53.014Z,19.58
2023-01-03T10:06:01.747Z,20.20
2023-01-03T10:08:06.868Z,26.65
2023-01-03T10:10:30.572Z,14.88
2023-01-03T10:13:02.312Z,28.77
2023-01-03T10:15:12.810Z,21.35
2023-01-03T10:17:38.256Z,20.80
2023-01-03T10:23:27.233Z,18.73
2023-01-03T10:25:32.648Z,18.05
2023-01-03T10:27:45.851Z,27.02
2023-01-03T10:29:48.971Z,23.23
2023-01-03T10:31:56.960Z,16.30
2023-01-03T10:34:14.296Z,25.95
2023-01-03T10:36:31.636Z,22.15
2023-01-03T10:38:44.844Z,22.30
2023-01-03T10:40:58.516Z,24.15
2023-01-03T10:43:07.254Z,22.77
2023-01-03T10:45:19.334Z,32.05
2023-01-03T10:47:27.221Z,21.38
2023-01-03T10:49:31.777Z,15.57
2023-01-03T10:51:42.160Z,20.80
2023-01-03T10:53:44.577Z,19.80
2023-01-03T10:55:53.084Z,24.58
2023-01-03T10:58:06.492Z,29.60
2023-01-03T11:00:28.792Z,24.25
2023-01-03T11:02:30.791Z,21.00
2023-01-03T11:04:32.878Z,23.45
2023-01-03T11:06:45.661Z,27.58
2023-01-03T11:08:56.205Z,26.27
2023-01-03T11:10:58.680Z,22.52
2023-01-03T11:13:00.697Z,30.10
2023-01-03T11:15:27.709Z,27.70
2023-01-03T11:17:31.792Z,27.05
2023-01-03T11:19:39.438Z,29.25
2023-01-03T11:21:59.848Z,26.67
2023-01-03T11:24:19.983Z,35.05
2023-01-03T11:26:27.792Z,23.27
2023-01-03T11:28:57.571Z,25.38
2023-01-03T11:31:08.888Z,20.80
2023-01-03T11:33:42.695Z,19.23
2023-01-03T11:35:56.238Z,15.60
2023-01-03T11:38:09.807Z,26.77
2023-01-03T11:40:25.843Z,28.20
2023-01-03T11:42:36.665Z,16.27
2023-01-03T11:44:52.520Z,20.10
2023-01-03T11:47:09.516Z,27.15
2023-01-03T11:49:17.680Z,23.77
2023-01-03T11:51:31.320Z,20.73
2023-01-03T11:53:44.012Z,22.23
2023-01-03T11:55:45.625Z,25.67
2023-01-03T11:57:56.519Z,23.63
2023-01-03T12:00:09.217Z,21.30
2023-01-03T12:02:25.604Z,27.73
2023-01-03T12:04:48.784Z,27.65
2023-01-03T12:07:45.818Z,23.48
2023-01-03T12:09:43.939Z,19.48
2023-01-03T12:11:52.427Z,22.13
2023-01-03T12:14:07.920Z,28.90
2023-01-03T12:16:20.074Z,26.92
2023-01-03T12:18:27.588Z,24.65
2023-01-03T12:20:34.392Z,25.83
2023-01-03T12:22:43.151Z,29.60
2023-01-03T12:25:16.934Z,26.63
2023-01-03T12:27:39.262Z,26.00
2023-01-03T12:29:59.383Z,25.10
2023-01-03T12:32:04.868Z,25.90
2023-01-03T12:34:16.729Z,24.48
2023-01-03T12:36:18.223Z,30.60
2023-01-03T12:38:24.365Z,26.25
2023-01-03T12:40:44.458Z,32.13
2023-01-03T12:42:59.260Z,32.63
2023-01-03T12:45:07.945Z,33.72
2023-01-03T12:47:19.190Z,27.80
2023-01-03T12:49:24.655Z,40.95
2023-01-03T12:51:30.274Z,27.15
2023-01-03T12:53:47.369Z,20.77
2023-01-03T12:56:06.979Z,24.95
2023-01-03T12:58:26.498Z,29.48
2023-01-03T13:00:31.195Z,25.83
2023-01-03T13:02:53.371Z,28.50
2023-01-03T13:05:16.636Z,28.02
2023-01-03T13:07:25.573Z,37.50
2023-01-03T13:09:33.018Z,40.50
2023-01-03T13:11:54.366Z,31.38
2023-01-03T13:14:03.823Z,18.20
2023-01-03T13:16:30.177Z,20.88
2023-01-03T13:18:37.412Z,27.98
2023-01-03T13:20:46.366Z,26.77
2023-01-03T13:23:01.585Z,24.80
2023-01-03T13:25:29.855Z,21.80
2023-01-03T13:27:46.491Z,24.83
2023-01-03T13:29:50.646Z,20.52
2023-01-03T13:32:14.153Z,18.90
2023-01-03T13:34:34.428Z,16.92
2023-01-03T13:36:58.952Z,12.07
2023-01-03T13:39:00.647Z,11.05
2023-01-03T13:41:19.451Z,9.93
2023-01-03T13:43:39.335Z,8.23
2023-01-03T13:45:46.321Z,5.68
2023-01-03T13:47:59.276Z,11.63
2023-01-03T13:50:23.923Z,11.30
2023-01-03T13:52:40.284Z,16.98
2023-01-03T13:55:07.452Z,13.90
2023-01-03T13:57:34.034Z,14.02
2023-01-03T13:59:46.685Z,23.83
2023-01-03T14:02:13.927Z,20.75
2023-01-03T14:04:34.858Z,16.88
2023-01-03T14:06:46.568Z,29.13
2023-01-03T14:08:53.961Z,32.13
2023-01-03T14:11:01.051Z,27.23
2023-01-03T14:13:16.536Z,32.42
2023-01-03T14:15:25.983Z,24.85
2023-01-03T14:17:32.860Z,24.42
2023-01-03T14:19:37.999Z,22.05
2023-01-03T14:21:45.165Z,25.45
2023-01-03T14:23:59.533Z,28.90
2023-01-03T14:26:06.617Z,22.92
2023-01-03T14:28:19.963Z,21.02
2023-01-03T14:30:22.607Z,27.50
2023-01-03T14:32:30.341Z,16.13
2023-01-03T14:34:40.984Z,17.98
2023-01-03T14:36:48.394Z,24.90
2023-01-03T14:38:54.719Z,14.95
2023-01-03T14:40:57.264Z,14.60
2023-01-03T14:43:05.043Z,18.05
2023-01-03T14:45:06.984Z,11.93
2023-01-03T14:47:14.553Z,14.73
2023-01-03T14:49:30.859Z,17.27
2023-01-03T14:51:36.057Z,19.50
2023-01-03T14:53:38.552Z,17.80
2023-01-03T14:55:40.926Z,18.77
2023-01-03T14:57:45.657Z,21.65
2023-01-03T14:59:47.904Z,27.30
2023-01-03T15:01:53.236Z,29.30
2023-01-03T15:03:55.733Z,20.35
2023-01-03T15:06:01.259Z,22.23
2023-01-03T15:08:10.361Z,24.92
2023-01-03T15:10:22.043Z,21.15
2023-01-03T15:12:24.230Z,21.98
2023-01-03T15:14:29.533Z,20.77
2023-01-03T15:16:35.332Z,23.10
2023-01-03T15:18:40.463Z,27.25
2023-01-03T15:20:50.461Z,24.73
2023-01-03T15:22:52.344Z,23.88
2023-01-03T15:25:19.883Z,25.73
2023-01-03T15:27:41.850Z,22.25
2023-01-03T15:29:49.332Z,27.98
2023-01-03T15:31:53.968Z,26.17
2023-01-03T15:33:59.605Z,23.20
2023-01-03T15:36:18.753Z,23.38
2023-01-03T15:38:31.997Z,22.67
2023-01-03T15:40:34.028Z,24.17
2023-01-03T15:42:58.554Z,26.13
2023-01-03T15:45:00.664Z,29.20
2023-01-03T15:47:05.825Z,27.20
2023-01-03T15:49:12.043Z,19.48
2023-01-03T15:51:19.710Z,21.98
2023-01-03T15:53:31.161Z,22.52
2023-01-03T15:55:32.805Z,23.88
2023-01-03T15:57:34.499Z,29.15
2023-01-03T15:59:43.321Z,17.08
2023-01-03T16:01:51.132Z,18.25
2023-01-03T16:03:53.803Z,18.50
2023-01-03T16:05:58.309Z,30.88
2023-01-03T16:07:59.803Z,22.17
2023-01-03T16:10:04.555Z,19.05
2023-01-03T16:12:17.625Z,21.15
2023-01-03T16:14:23.859Z,13.60
2023-01-03T16:16:33.994Z,15.38
2023-01-03T16:18:44.673Z,24.17
2023-01-03T16:20:50.003Z,18.40
2023-01-03T16:23:01.486Z,22.15
2023-01-03T16:25:06.655Z,16.27
2023-01-03T16:27:25.230Z,15.63
2023-01-03T16:29:27.194Z,30.17
2023-01-03T16:31:35.518Z,16.45
2023-01-03T16:33:43.872Z,18.75
2023-01-03T16:35:45.527Z,14.55
2023-01-03T16:37:47.064Z,20.95
2023-01-03T16:39:54.508Z,15.05
2023-01-03T16:42:14.436Z,18.65
2023-01-03T16:44:15.984Z,15.63
2023-01-03T16:46:26.157Z,15.68
2023-01-03T16:48:42.505Z,15.63
2023-01-03T16:50:52.000Z,22.27
2023-01-03T16:53:00.685Z,19.85
2023-01-03T16:55:17.751Z,16.55
2023-01-03T16:57:25.540Z,24.27
2023-01-03T16:59:32.987Z,25.08
2023-01-03T17:01:36.661Z,22.10
2023-01-03T17:03:44.088Z,14.18
2023-01-03T17:05:52.891Z,25.23
2023-01-03T17:08:04.554Z,21.10
2023-01-03T17:10:31.981Z,20.10
2023-01-03T17:12:35.563Z,25.00
2023-01-03T17:14:39.966Z,15.90
2023-01-03T17:16:50.720Z,22.70
2023-01-03T17:18:59.594Z,13.85
2023-01-03T17:21:06.986Z,20.42
2023-01-03T17:23:10.865Z,20.40
2023-01-03T17:25:18.675Z,17.02
2023-01-03T17:27:29.389Z,17.35
2023-01-03T17:29:37.782Z,17.20
2023-01-03T17:31:40.785Z,14.80
2023-01-03T17:34:18.623Z,15.48
2023-01-03T17:36:38.183Z,15.98
2023-01-03T17:38:41.979Z,11.85
2023-01-03T17:40:52.348Z,10.98
2023-01-03T17:42:57.424Z,10.60
2023-01-03T17:45:32.876Z,15.70
2023-01-03T17:48:00.234Z,12.13
2023-01-03T17:52:29.323Z,9.82
2023-01-03T17:54:36.176Z,11.13
2023-01-03T17:56:40.742Z,10.05
2023-01-03T17:58:55.425Z,14.15
2023-01-03T18:00:59.464Z,12.07
2023-01-03T18:03:05.113Z,13.05
2023-01-03T18:05:17.686Z,8.73
2023-01-03T18:07:35.446Z,13.43
2023-01-03T18:09:50.245Z,16.95
2023-01-03T18:11:58.214Z,11.18
2023-01-03T18:14:07.716Z,12.90
2023-01-03T18:16:19.286Z,15.48
2023-01-03T18:18:23.771Z,13.00
2023-01-03T18:20:28.492Z,6.15
2023-01-03T18:22:30.787Z,10.55
2023-01-03T18:24:42.907Z,8.40
2023-01-03T18:26:55.824Z,8.38
2023-01-03T18:28:57.757Z,4.38
2023-01-03T18:31:08.867Z,6.13
2023-01-03T18:33:17.586Z,2.92
2023-01-03T18:35:29.763Z,4.25
2023-01-03T18:37:45.836Z,4.38
2023-01-03T18:39:48.020Z,3.80
2023-01-03T18:42:27.957Z,6.10
2023-01-03T18:44:31.400Z,5.47
2023-01-03T18:46:41.459Z,4.75
2023-01-03T18:48:46.221Z,6.65
2023-01-03T18:50:55.674Z,6.22
2023-01-03T18:53:05.633Z,4.57
2023-01-03T18:55:17.904Z,5.45
2023-01-03T18:57:25.599Z,3.50
2023-01-03T18:59:30.171Z,7.28
2023-01-03T19:01:37.930Z,5.38
2023-01-03T19:03:45.845Z,8.13
2023-01-03T19:05:47.718Z,11.18
2023-01-03T19:07:50.766Z,7.53
2023-01-03T19:09:52.480Z,14.85
2023-01-03T19:12:03.974Z,10.45
2023-01-03T19:14:10.527Z,12.35
2023-01-03T19:16:13.492Z,7.18
2023-01-03T19:18:21.105Z,10.90
2023-01-03T19:20:27.046Z,8.60
2023-01-03T19:22:37.010Z,8.13
2023-01-03T19:24:48.441Z,10.80
2023-01-03T19:26:56.401Z,11.75
2023-01-03T19:29:00.727Z,9.55
2023-01-03T19:31:14.005Z,9.00
2023-01-03T19:33:26.948Z,8.10
2023-01-03T19:37:58.913Z,3.15
2023-01-03T19:40:18.564Z,9.82
2023-01-03T19:42:54.346Z,5.13
2023-01-03T19:45:03.209Z,11.48
2023-01-03T19:50:32.811Z,12.15
2023-01-03T19:52:46.470Z,6.82
2023-01-03T19:54:59.439Z,7.68
2023-01-03T19:57:55.361Z,12.77
2023-01-03T20:03:09.992Z,10.48
2023-01-03T20:09:03.484Z,12.85
2023-01-03T20:11:36.429Z,11.77
2023-01-03T20:20:12.826Z,13.70
2023-01-03T20:25:10.412Z,21.30
2023-01-03T20:27:44.129Z,23.60
2023-01-03T20:30:26.564Z,20.70
2023-01-03T20:33:00.760Z,21.42
2023-01-03T20:36:07.181Z,17.70
2023-01-03T20:38:11.011Z,24.65
2023-01-03T20:40:42.685Z,15.43
2023-01-03T20:42:50.507Z,23.67
2023-01-03T20:44:56.642Z,23.67
2023-01-03T20:47:04.499Z,21.17
2023-01-03T20:49:11.333Z,29.90
2023-01-03T20:51:18.804Z,43.10
2023-01-03T20:53:21.875Z,18.70
2023-01-03T20:55:24.746Z,30.42
2023-01-03T20:57:26.253Z,23.40
2023-01-03T20:59:33.712Z,20.90
2023-01-03T21:01:35.596Z,21.50
2023-01-03T21:03:37.837Z,31.98
2023-01-03T21:05:42.293Z,21.05
2023-01-03T21:08:02.655Z,20.73
2023-01-03T21:10:06.108Z,31.02
2023-01-03T21:12:12.859Z,23.08
2023-01-03T21:16:39.550Z,21.70
2023-01-03T21:18:41.262Z,39.38
2023-01-03T21:20:51.038Z,28.85
2023-01-03T21:25:18.812Z,25.42
2023-01-03T21:27:20.792Z,25.02
2023-01-03T21:29:26.726Z,30.70
2023-01-03T21:31:33.393Z,27.33
2023-01-03T21:33:41.184Z,25.90
2023-01-03T21:35:42.924Z,27.65
2023-01-03T21:38:11.916Z,28.77
2023-01-03T21:40:21.031Z,29.63
2023-01-03T21:42:48.368Z,29.73
2023-01-03T21:44:56.283Z,31.17
2023-01-03T21:46:58.589Z,22.90
2023-01-03T21:49:03.432Z,18.58
2023-01-03T21:51:11.990Z,17.67
2023-01-03T21:53:21.706Z,27.45
2023-01-03T21:55:24.666Z,29.77
2023-01-03T21:57:35.699Z,25.17
2023-01-03T21:59:38.008Z,21.38
2023-01-03T22:02:04.798Z,17.02
2023-01-03T22:04:24.474Z,22.65
2023-01-03T22:06:26.347Z,17.15
2023-01-03T22:08:29.702Z,23.25
2023-01-03T22:10:31.489Z,29.13
2023-01-03T22:12:38.739Z,18.58
2023-01-03T22:14:40.995Z,25.60
2023-01-03T22:16:42.619Z,17.13
2023-01-03T22:18:44.841Z,24.05
2023-01-03T22:20:53.455Z,15.88
2023-01-03T22:22:55.104Z,18.50
2023-01-03T22:24:58.744Z,23.75
2023-01-03T22:27:07.314Z,23.70
2023-01-03T22:29:12.489Z,15.98
2023-01-03T22:31:18.398Z,24.90
2023-01-03T22:33:25.740Z,21.88
2023-01-03T22:35:29.976Z,26.10
2023-01-03T22:37:31.632Z,21.38
2023-01-03T22:39:33.571Z,16.25
2023-01-03T22:41:35.243Z,21.52
2023-01-03T22:43:43.415Z,24.05
2023-01-03T22:45:50.854Z,23.70
2023-01-03T22:47:55.345Z,21.75
2023-01-03T22:50:03.439Z,19.88
2023-01-03T22:52:05.133Z,23.48
2023-01-03T22:54:09.358Z,20.27
2023-01-03T22:56:11.929Z,19.67
2023-01-03T22:58:18.830Z,14.32
2023-01-03T23:00:30.301Z,19.42
2023-01-03T23:02:48.783Z,17.77
2023-01-03T23:05:06.865Z,13.52
2023-01-03T23:07:22.094Z,19.00
2023-01-03T23:12:07.321Z,28.95
2023-01-03T23:14:15.921Z,11.77
2023-01-03T23:16:21.428Z,15.80
2023-01-03T23:18:28.300Z,11.38
2023-01-03T23:20:54.228Z,16.35
2023-01-03T23:23:12.177Z,18.92
2023-01-03T23:25:24.927Z,12.93
2023-01-03T23:27:33.052Z,12.98
2023-01-03T23:29:42.528Z,16.20
2023-01-03T23:31:58.766Z,19.98
2023-01-03T23:34:15.366Z,16.77
2023-01-03T23:36:27.334Z,20.70
2023-01-03T23:38:34.303Z,15.02
2023-01-03T23:40:39.295Z,14.65
2023-01-03T23:42:43.652Z,16.48
2023-01-03T23:44:45.281Z,19.08
2023-01-03T23:46:49.478Z,23.88
2023-01-03T23:48:54.624Z,19.38
2023-01-03T23:51:02.730Z,17.40
2023-01-03T23:53:06.873Z,18.00
2023-01-03T23:55:12.875Z,19.20
2023-01-03T23:57:17.570Z,16.85
2023-01-03T23:59:19.070Z,17.48
